createdAt,value
2022-08-29T00:02:30.450Z,1.00
2022-08-29T00:07:37.809Z,1.00
2022-08-29T00:12:43.282Z,99.90
2022-08-29T00:17:48.401Z,99.90
2022-08-29T00:22:53.181Z,99.90
2022-08-29T00:28:03.368Z,99.90
2022-08-29T00:33:09.195Z,99.90
2022-08-29T00:38:15.318Z,99.90
2022-08-29T00:43:24.060Z,99.90
2022-08-29T00:48:29.282Z,99.90
2022-08-29T00:53:37.357Z,99.90
2022-08-29T00:58:44.320Z,99.90
2022-08-29T01:03:49.527Z,99.90
2022-08-29T01:08:57.596Z,99.90
2022-08-29T01:14:03.672Z,99.90
2022-08-29T01:19:21.269Z,99.90
2022-08-29T01:24:47.624Z,99.90
2022-08-29T01:29:52.662Z,99.90
2022-08-29T01:34:58.023Z,99.90
2022-08-29T01:40:03.290Z,99.90
2022-08-29T01:45:10.011Z,99.90
2022-08-29T01:50:17.171Z,99.90
2022-08-29T01:55:22.415Z,99.90
2022-08-29T02:00:27.416Z,99.90
2022-08-29T02:05:32.980Z,99.90
2022-08-29T02:10:38.292Z,99.90
2022-08-29T02:15:43.635Z,99.90
2022-08-29T02:20:48.851Z,99.90
2022-08-29T02:25:54.390Z,99.90
2022-08-29T02:30:59.450Z,99.90
2022-08-29T02:36:04.677Z,99.90
2022-08-29T02:41:14.000Z,99.90
2022-08-29T02:46:19.572Z,99.90
2022-08-29T02:51:26.591Z,99.90
2022-08-29T02:56:32.024Z,99.90
2022-08-29T03:01:40.120Z,99.90
2022-08-29T03:06:44.872Z,99.90
2022-08-29T03:11:49.966Z,99.90
2022-08-29T03:16:54.707Z,99.90
2022-08-29T03:21:59.951Z,99.90
2022-08-29T03:27:05.786Z,99.90
2022-08-29T03:32:10.968Z,99.90
2022-08-29T03:37:15.803Z,99.90
2022-08-29T03:42:21.295Z,99.90
2022-08-29T03:47:26.060Z,99.90
2022-08-29T03:52:31.172Z,99.90
2022-08-29T03:57:37.212Z,99.90
2022-08-29T04:02:42.686Z,99.90
2022-08-29T04:07:49.681Z,99.90
2022-08-29T04:12:55.118Z,99.90
2022-08-29T04:18:01.472Z,99.90
2022-08-29T04:23:07.602Z,99.90
2022-08-29T04:28:14.469Z,99.90
2022-08-29T04:33:22.258Z,99.90
2022-08-29T04:38:27.855Z,99.90
2022-08-29T04:43:32.974Z,99.90
2022-08-29T04:48:38.120Z,99.90
2022-08-29T04:53:44.311Z,99.90
2022-08-29T04:58:50.067Z,99.90
2022-08-29T05:03:56.754Z,99.90
2022-08-29T05:09:09.649Z,99.90
2022-08-29T05:14:17.805Z,99.90
2022-08-29T05:19:25.742Z,99.90
2022-08-29T05:24:38.811Z,99.90
2022-08-29T05:29:45.047Z,99.90
2022-08-29T05:34:51.100Z,99.90
2022-08-29T05:39:56.305Z,99.90
2022-08-29T05:45:10.610Z,99.90
2022-08-29T05:50:18.444Z,99.90
2022-08-29T05:55:27.900Z,99.90
2022-08-29T06:00:36.094Z,99.90
2022-08-29T06:05:43.557Z,99.90
2022-08-29T06:10:49.145Z,99.90
2022-08-29T06:15:54.421Z,99.90
2022-08-29T06:21:00.009Z,99.90
2022-08-29T06:26:06.245Z,99.90
2022-08-29T06:31:12.885Z,99.90
2022-08-29T06:36:17.929Z,99.90
2022-08-29T06:41:23.053Z,99.90
2022-08-29T06:46:32.942Z,99.90
2022-08-29T06:51:39.520Z,99.90
2022-08-29T06:56:45.170Z,99.90
2022-08-29T07:01:50.749Z,99.90
2022-08-29T07:06:55.628Z,99.90
2022-08-29T07:12:00.793Z,99.90
2022-08-29T07:17:06.601Z,99.90
2022-08-29T07:22:11.864Z,99.90
2022-08-29T07:27:17.350Z,99.90
2022-08-29T07:32:25.766Z,99.90
2022-08-29T07:37:31.184Z,99.90
2022-08-29T07:42:37.130Z,97.00
2022-08-29T07:47:41.897Z,92.90
2022-08-29T07:52:46.983Z,97.00
2022-08-29T07:57:55.122Z,97.10
2022-08-29T08:03:00.319Z,96.40
2022-08-29T08:08:08.993Z,93.20
2022-08-29T08:13:20.754Z,87.70
2022-08-29T08:18:27.778Z,79.10
2022-08-29T08:23:33.184Z,75.00
2022-08-29T08:28:38.150Z,73.60
2022-08-29T08:33:43.782Z,72.80
2022-08-29T08:38:49.119Z,76.00
2022-08-29T08:44:03.099Z,75.30
2022-08-29T08:49:10.750Z,78.80
2022-08-29T08:54:22.897Z,77.10
2022-08-29T08:59:35.979Z,81.20
2022-08-29T09:04:58.965Z,83.50
2022-08-29T09:10:20.423Z,84.80
2022-08-29T09:15:27.078Z,86.40
2022-08-29T09:20:34.493Z,88.00
2022-08-29T09:25:39.681Z,90.40
2022-08-29T09:30:45.453Z,91.00
2022-08-29T09:35:54.720Z,92.00
2022-08-29T09:41:01.531Z,92.60
2022-08-29T09:46:12.766Z,94.40
2022-08-29T09:51:25.627Z,95.10
2022-08-29T09:56:30.889Z,96.30
2022-08-29T10:01:36.551Z,97.50
2022-08-29T10:06:46.276Z,99.00
2022-08-29T10:12:14.020Z,99.90
2022-08-29T10:17:43.709Z,99.90
2022-08-29T10:22:53.998Z,99.90
2022-08-29T10:28:14.794Z,99.90
2022-08-29T10:33:24.442Z,99.90
2022-08-29T10:38:39.019Z,99.90
2022-08-29T10:43:49.600Z,99.90
2022-08-29T10:49:21.459Z,99.90
2022-08-29T10:54:46.490Z,99.90
2022-08-29T11:00:04.011Z,99.90
2022-08-29T11:05:16.020Z,99.90
2022-08-29T11:10:24.588Z,99.90
2022-08-29T11:15:34.073Z,99.90
2022-08-29T11:20:44.111Z,99.90
2022-08-29T11:25:49.564Z,99.90
2022-08-29T11:30:54.655Z,99.90
2022-08-29T11:36:05.187Z,99.90
2022-08-29T11:41:31.797Z,99.90
2022-08-29T11:46:56.559Z,99.90
2022-08-29T11:52:16.681Z,99.90
2022-08-29T11:57:22.554Z,99.90
2022-08-29T12:02:34.664Z,99.90
2022-08-29T12:07:45.271Z,99.90
2022-08-29T12:12:52.472Z,99.90
2022-08-29T12:18:02.551Z,99.90
2022-08-29T12:23:09.663Z,99.90
2022-08-29T12:28:20.613Z,99.90
2022-08-29T12:33:43.325Z,99.90
2022-08-29T12:38:59.920Z,99.90
2022-08-29T12:44:06.178Z,99.90
2022-08-29T12:49:17.798Z,99.90
2022-08-29T12:54:34.107Z,99.90
2022-08-29T12:59:45.728Z,99.90
2022-08-29T13:04:51.216Z,99.90
2022-08-29T13:09:57.645Z,99.90
2022-08-29T13:15:03.479Z,99.90
2022-08-29T13:20:27.479Z,99.90
2022-08-29T13:25:33.621Z,99.90
2022-08-29T13:30:38.775Z,99.90
2022-08-29T13:35:46.219Z,99.90
2022-08-29T13:40:54.337Z,99.90
2022-08-29T13:46:17.406Z,99.90
2022-08-29T13:51:22.589Z,99.90
2022-08-29T13:56:32.638Z,99.90
2022-08-29T14:07:02.894Z,99.90
2022-08-29T14:12:09.194Z,99.90
2022-08-29T14:17:18.550Z,99.90
2022-08-29T14:22:24.030Z,99.90
2022-08-29T14:27:29.300Z,99.90
2022-08-29T14:32:34.453Z,99.90
2022-08-29T14:37:40.213Z,99.90
2022-08-29T14:42:46.001Z,99.90
2022-08-29T14:47:51.205Z,99.90
2022-08-29T14:52:56.333Z,99.90
2022-08-29T14:58:01.801Z,99.90
2022-08-29T15:03:07.063Z,99.90
2022-08-29T15:08:15.683Z,99.90
2022-08-29T15:13:21.111Z,99.90
2022-08-29T15:19:09.445Z,99.90
2022-08-29T15:23:51.421Z,99.90
2022-08-29T15:28:56.557Z,99.90
2022-08-29T15:34:01.951Z,99.90
2022-08-29T15:39:07.667Z,99.90
2022-08-29T15:44:12.857Z,99.90
2022-08-29T15:49:17.677Z,99.90
2022-08-29T15:54:22.727Z,99.90
2022-08-29T15:59:54.192Z,99.90
2022-08-29T16:04:58.183Z,99.90
2022-08-29T16:10:05.738Z,99.90
2022-08-29T16:15:15.853Z,99.90
2022-08-29T16:20:21.322Z,99.90
2022-08-29T16:25:26.877Z,99.90
2022-08-29T16:30:32.441Z,99.90
2022-08-29T16:35:38.272Z,99.90
2022-08-29T16:40:43.473Z,99.90
2022-08-29T16:45:48.758Z,99.90
2022-08-29T16:50:55.521Z,99.90
2022-08-29T16:56:00.284Z,99.90
2022-08-29T17:01:05.841Z,99.90
2022-08-29T17:06:10.809Z,99.90
2022-08-29T17:11:15.652Z,99.90
2022-08-29T17:16:21.079Z,99.90
2022-08-29T17:21:28.597Z,99.90
2022-08-29T17:26:33.927Z,99.90
2022-08-29T17:31:39.522Z,99.90
2022-08-29T17:36:45.749Z,99.90
2022-08-29T17:41:54.249Z,99.90
2022-08-29T17:46:59.298Z,99.90
2022-08-29T17:52:04.452Z,99.90
2022-08-29T17:57:09.648Z,99.90
2022-08-29T18:02:14.909Z,99.90
2022-08-29T18:07:20.127Z,99.90
2022-08-29T18:12:27.178Z,99.90
2022-08-29T18:17:33.673Z,99.90
2022-08-29T18:22:39.099Z,99.90
2022-08-29T18:27:44.280Z,99.90
2022-08-29T18:32:49.297Z,99.90
2022-08-29T18:37:54.079Z,99.90
2022-08-29T18:42:59.754Z,99.90
2022-08-29T18:48:06.268Z,99.90
2022-08-29T18:53:13.226Z,99.90
2022-08-29T18:58:18.664Z,99.90
2022-08-29T19:03:23.847Z,99.90
2022-08-29T19:08:28.989Z,99.90
2022-08-29T19:13:34.652Z,1.00
2022-08-29T19:18:41.388Z,1.00
2022-08-29T19:23:52.401Z,1.00
2022-08-29T19:28:59.241Z,1.00
2022-08-29T19:34:04.615Z,1.00
2022-08-29T19:39:09.664Z,1.00
2022-08-29T19:44:14.947Z,1.00
2022-08-29T19:49:19.704Z,1.00
2022-08-29T19:54:24.755Z,1.00
2022-08-29T19:59:29.460Z,1.00
2022-08-29T20:04:35.621Z,1.00
2022-08-29T20:09:40.756Z,1.00
2022-08-29T20:14:45.804Z,1.00
2022-08-29T20:19:51.214Z,1.00
2022-08-29T20:24:56.248Z,1.00
2022-08-29T20:30:01.401Z,1.00
2022-08-29T20:35:07.438Z,1.00
2022-08-29T20:40:15.234Z,1.00
2022-08-29T20:45:20.224Z,1.00
2022-08-29T20:50:24.976Z,1.00
2022-08-29T20:55:30.341Z,1.00
2022-08-29T21:00:35.843Z,1.00
2022-08-29T21:05:43.987Z,1.00
2022-08-29T21:10:49.797Z,1.00
2022-08-29T21:15:54.857Z,1.00
2022-08-29T21:21:02.268Z,1.00
2022-08-29T21:26:06.997Z,1.00
2022-08-29T21:31:13.723Z,1.00
2022-08-29T21:36:20.660Z,1.00
2022-08-29T21:41:26.280Z,1.00
2022-08-29T21:46:33.231Z,1.00
2022-08-29T21:51:40.106Z,1.00
2022-08-29T21:56:45.418Z,1.00
2022-08-29T22:01:54.774Z,1.00
2022-08-29T22:07:00.689Z,1.00
2022-08-29T22:12:07.321Z,1.00
2022-08-29T22:17:13.243Z,1.00
2022-08-29T22:22:18.424Z,1.00
2022-08-29T22:27:23.154Z,1.00
2022-08-29T22:32:35.841Z,1.00
2022-08-29T22:37:43.826Z,4.10
2022-08-29T22:42:49.230Z,12.60
2022-08-29T22:47:53.941Z,2.90
2022-08-29T22:52:59.786Z,5.10
2022-08-29T22:58:06.286Z,9.70
2022-08-29T23:03:11.327Z,19.60
2022-08-29T23:08:18.510Z,11.60
2022-08-29T23:13:23.825Z,4.30
2022-08-29T23:18:28.560Z,1.00
2022-08-29T23:23:33.679Z,1.00
2022-08-29T23:28:39.457Z,1.00
2022-08-29T23:33:45.020Z,1.00
2022-08-29T23:38:52.706Z,1.00
2022-08-29T23:43:57.980Z,1.00
2022-08-29T23:49:03.194Z,99.90
2022-08-29T23:54:08.386Z,99.90
2022-08-29T23:59:33.303Z,99.90
